sensor_id;sensor_type;location;lat;lon;timestamp;P1;durP1;ratioP1;P2;durP2;ratioP2
27489;SDS011;14925;51.026;13.752;2022-11-20T00:01:28;40.15;;;19.45;;
27489;SDS011;14925;51.026;13.752;2022-11-20T00:03:57;46.38;;;20.63;;
27489;SDS011;14925;51.026;13.752;2022-11-20T00:06:26;42.45;;;21.23;;
27489;SDS011;14925;51.026;13.752;2022-11-20T00:09:01;40.97;;;20.23;;
27489;SDS011;14925;51.026;13.752;2022-11-20T00:11:27;45.65;;;21.48;;
27489;SDS011;14925;51.026;13.752;2022-11-20T00:13:55;40.88;;;20.02;;
27489;SDS011;14925;51.026;13.752;2022-11-20T00:16:25;45.85;;;20.27;;
27489;SDS011;14925;51.026;13.752;2022-11-20T00:19:11;47.28;;;21.90;;
27489;SDS011;14925;51.026;13.752;2022-11-20T00:21:39;41.30;;;20.85;;
27489;SDS011;14925;51.026;13.752;2022-11-20T00:24:08;52.05;;;22.40;;
27489;SDS011;14925;51.026;13.752;2022-11-20T00:26:36;39.22;;;19.95;;
27489;SDS011;14925;51.026;13.752;2022-11-20T00:29:04;42.83;;;21.02;;
27489;SDS011;14925;51.026;13.752;2022-11-20T00:31:38;43.55;;;21.17;;
27489;SDS011;14925;51.026;13.752;2022-11-20T00:34:03;40.95;;;19.98;;
27489;SDS011;14925;51.026;13.752;2022-11-20T00:36:31;38.78;;;19.00;;
27489;SDS011;14925;51.026;13.752;2022-11-20T00:38:58;43.83;;;20.48;;
27489;SDS011;14925;51.026;13.752;2022-11-20T00:41:31;42.20;;;20.40;;
27489;SDS011;14925;51.026;13.752;2022-11-20T00:43:59;41.20;;;19.35;;
27489;SDS011;14925;51.026;13.752;2022-11-20T00:46:30;41.42;;;20.42;;
27489;SDS011;14925;51.026;13.752;2022-11-20T00:48:58;42.92;;;19.40;;
27489;SDS011;14925;51.026;13.752;2022-11-20T00:51:24;43.75;;;20.98;;
27489;SDS011;14925;51.026;13.752;2022-11-20T00:53:54;44.10;;;21.05;;
27489;SDS011;14925;51.026;13.752;2022-11-20T00:56:20;40.63;;;20.05;;
27489;SDS011;14925;51.026;13.752;2022-11-20T00:58:53;40.00;;;19.50;;
27489;SDS011;14925;51.026;13.752;2022-11-20T01:01:24;39.58;;;19.60;;
27489;SDS011;14925;51.026;13.752;2022-11-20T01:03:57;43.17;;;20.08;;
27489;SDS011;14925;51.026;13.752;2022-11-20T01:06:39;42.95;;;20.35;;
27489;SDS011;14925;51.026;13.752;2022-11-20T01:09:09;41.85;;;19.10;;
27489;SDS011;14925;51.026;13.752;2022-11-20T01:11:45;41.30;;;18.80;;
27489;SDS011;14925;51.026;13.752;2022-11-20T01:14:17;37.22;;;18.08;;
27489;SDS011;14925;51.026;13.752;2022-11-20T01:16:52;35.45;;;17.52;;
27489;SDS011;14925;51.026;13.752;2022-11-20T01:19:21;41.50;;;18.27;;
27489;SDS011;14925;51.026;13.752;2022-11-20T01:21:52;40.67;;;19.48;;
27489;SDS011;14925;51.026;13.752;2022-11-20T01:24:21;47.40;;;19.77;;
27489;SDS011;14925;51.026;13.752;2022-11-20T01:26:50;46.33;;;19.27;;
27489;SDS011;14925;51.026;13.752;2022-11-20T01:29:22;43.60;;;18.90;;
27489;SDS011;14925;51.026;13.752;2022-11-20T01:31:58;39.03;;;19.77;;
27489;SDS011;14925;51.026;13.752;2022-11-20T01:34:24;39.28;;;18.20;;
27489;SDS011;14925;51.026;13.752;2022-11-20T01:37:00;41.67;;;19.05;;
27489;SDS011;14925;51.026;13.752;2022-11-20T01:39:34;39.63;;;18.02;;
27489;SDS011;14925;51.026;13.752;2022-11-20T01:41:59;43.20;;;18.95;;
27489;SDS011;14925;51.026;13.752;2022-11-20T01:47:21;43.47;;;19.23;;
27489;SDS011;14925;51.026;13.752;2022-11-20T01:55:19;40.35;;;18.73;;
27489;SDS011;14925;51.026;13.752;2022-11-20T01:58:01;45.70;;;19.77;;
27489;SDS011;14925;51.026;13.752;2022-11-20T02:00:39;38.72;;;17.98;;
27489;SDS011;14925;51.026;13.752;2022-11-20T02:03:12;42.88;;;19.08;;
27489;SDS011;14925;51.026;13.752;2022-11-20T02:05:57;41.55;;;18.40;;
27489;SDS011;14925;51.026;13.752;2022-11-20T02:08:40;42.10;;;19.20;;
27489;SDS011;14925;51.026;13.752;2022-11-20T02:11:22;37.83;;;18.20;;
27489;SDS011;14925;51.026;13.752;2022-11-20T02:13:56;40.20;;;18.38;;
27489;SDS011;14925;51.026;13.752;2022-11-20T02:16:23;39.75;;;18.63;;
27489;SDS011;14925;51.026;13.752;2022-11-20T02:18:55;45.78;;;20.02;;
27489;SDS011;14925;51.026;13.752;2022-11-20T02:24:50;39.47;;;18.98;;
27489;SDS011;14925;51.026;13.752;2022-11-20T02:27:16;40.42;;;19.00;;
27489;SDS011;14925;51.026;13.752;2022-11-20T02:29:52;39.72;;;18.30;;
27489;SDS011;14925;51.026;13.752;2022-11-20T02:32:19;41.75;;;19.35;;
27489;SDS011;14925;51.026;13.752;2022-11-20T02:34:48;43.67;;;20.05;;
27489;SDS011;14925;51.026;13.752;2022-11-20T02:37:18;43.17;;;19.75;;
27489;SDS011;14925;51.026;13.752;2022-11-20T02:39:49;41.70;;;19.08;;
27489;SDS011;14925;51.026;13.752;2022-11-20T02:42:20;39.60;;;18.40;;
27489;SDS011;14925;51.026;13.752;2022-11-20T02:44:48;41.35;;;19.95;;
27489;SDS011;14925;51.026;13.752;2022-11-20T02:47:16;38.28;;;18.65;;
27489;SDS011;14925;51.026;13.752;2022-11-20T02:49:42;40.17;;;19.38;;
27489;SDS011;14925;51.026;13.752;2022-11-20T02:52:15;38.67;;;19.42;;
27489;SDS011;14925;51.026;13.752;2022-11-20T02:54:43;44.20;;;19.45;;
27489;SDS011;14925;51.026;13.752;2022-11-20T02:57:08;43.53;;;20.10;;
27489;SDS011;14925;51.026;13.752;2022-11-20T02:59:44;39.78;;;18.95;;
27489;SDS011;14925;51.026;13.752;2022-11-20T03:02:15;38.28;;;18.27;;
27489;SDS011;14925;51.026;13.752;2022-11-20T03:04:43;38.85;;;18.42;;
27489;SDS011;14925;51.026;13.752;2022-11-20T03:07:32;39.58;;;18.33;;
27489;SDS011;14925;51.026;13.752;2022-11-20T03:10:03;38.40;;;17.77;;
27489;SDS011;14925;51.026;13.752;2022-11-20T03:12:39;39.42;;;18.30;;
27489;SDS011;14925;51.026;13.752;2022-11-20T03:15:09;36.03;;;17.17;;
27489;SDS011;14925;51.026;13.752;2022-11-20T03:17:40;37.55;;;16.98;;
27489;SDS011;14925;51.026;13.752;2022-11-20T03:20:06;38.22;;;18.05;;
27489;SDS011;14925;51.026;13.752;2022-11-20T03:22:32;36.42;;;16.35;;
27489;SDS011;14925;51.026;13.752;2022-11-20T03:25:00;35.40;;;17.33;;
27489;SDS011;14925;51.026;13.752;2022-11-20T03:27:31;37.97;;;17.40;;
27489;SDS011;14925;51.026;13.752;2022-11-20T03:29:58;38.97;;;18.55;;
27489;SDS011;14925;51.026;13.752;2022-11-20T03:32:28;36.50;;;17.45;;
27489;SDS011;14925;51.026;13.752;2022-11-20T03:34:56;37.17;;;17.30;;
27489;SDS011;14925;51.026;13.752;2022-11-20T03:37:27;35.17;;;17.08;;
27489;SDS011;14925;51.026;13.752;2022-11-20T03:40:02;38.63;;;17.55;;
27489;SDS011;14925;51.026;13.752;2022-11-20T03:42:30;40.20;;;18.35;;
27489;SDS011;14925;51.026;13.752;2022-11-20T03:45:17;43.05;;;19.10;;
27489;SDS011;14925;51.026;13.752;2022-11-20T03:47:47;39.28;;;17.77;;
27489;SDS011;14925;51.026;13.752;2022-11-20T03:50:18;41.15;;;18.42;;
27489;SDS011;14925;51.026;13.752;2022-11-20T03:52:46;41.80;;;19.05;;
27489;SDS011;14925;51.026;13.752;2022-11-20T03:55:11;43.00;;;19.02;;
27489;SDS011;14925;51.026;13.752;2022-11-20T03:57:37;40.20;;;19.17;;
27489;SDS011;14925;51.026;13.752;2022-11-20T04:00:14;41.85;;;18.27;;
27489;SDS011;14925;51.026;13.752;2022-11-20T04:02:42;39.70;;;18.60;;
27489;SDS011;14925;51.026;13.752;2022-11-20T04:05:14;42.20;;;18.58;;
27489;SDS011;14925;51.026;13.752;2022-11-20T04:07:44;39.67;;;18.67;;
27489;SDS011;14925;51.026;13.752;2022-11-20T04:10:14;43.42;;;19.98;;
27489;SDS011;14925;51.026;13.752;2022-11-20T04:12:45;48.20;;;20.50;;
27489;SDS011;14925;51.026;13.752;2022-11-20T04:15:17;47.15;;;21.30;;
27489;SDS011;14925;51.026;13.752;2022-11-20T04:17:44;45.53;;;20.45;;
27489;SDS011;14925;51.026;13.752;2022-11-20T04:20:15;44.08;;;20.40;;
27489;SDS011;14925;51.026;13.752;2022-11-20T04:22:45;52.20;;;21.17;;
27489;SDS011;14925;51.026;13.752;2022-11-20T04:25:11;50.45;;;21.48;;
27489;SDS011;14925;51.026;13.752;2022-11-20T04:27:42;47.80;;;20.70;;
27489;SDS011;14925;51.026;13.752;2022-11-20T04:30:10;48.80;;;21.58;;
27489;SDS011;14925;51.026;13.752;2022-11-20T04:32:36;46.42;;;21.45;;
27489;SDS011;14925;51.026;13.752;2022-11-20T04:35:07;46.42;;;20.33;;
27489;SDS011;14925;51.026;13.752;2022-11-20T04:40:17;46.90;;;20.25;;
27489;SDS011;14925;51.026;13.752;2022-11-20T04:42:44;45.90;;;20.75;;
27489;SDS011;14925;51.026;13.752;2022-11-20T04:45:20;43.80;;;20.08;;
27489;SDS011;14925;51.026;13.752;2022-11-20T04:47:46;45.20;;;19.63;;
27489;SDS011;14925;51.026;13.752;2022-11-20T04:50:22;44.63;;;19.75;;
27489;SDS011;14925;51.026;13.752;2022-11-20T04:52:48;47.13;;;20.33;;
27489;SDS011;14925;51.026;13.752;2022-11-20T04:55:13;48.35;;;20.77;;
27489;SDS011;14925;51.026;13.752;2022-11-20T04:57:39;43.25;;;19.63;;
27489;SDS011;14925;51.026;13.752;2022-11-20T05:00:04;43.55;;;20.15;;
27489;SDS011;14925;51.026;13.752;2022-11-20T05:02:30;44.38;;;19.77;;
27489;SDS011;14925;51.026;13.752;2022-11-20T05:04:56;46.92;;;20.10;;
27489;SDS011;14925;51.026;13.752;2022-11-20T05:07:22;44.13;;;19.90;;
27489;SDS011;14925;51.026;13.752;2022-11-20T05:09:48;51.40;;;20.77;;
27489;SDS011;14925;51.026;13.752;2022-11-20T05:12:32;43.50;;;20.02;;
27489;SDS011;14925;51.026;13.752;2022-11-20T05:15:15;48.50;;;19.35;;
27489;SDS011;14925;51.026;13.752;2022-11-20T05:17:49;46.80;;;20.88;;
27489;SDS011;14925;51.026;13.752;2022-11-20T05:20:19;39.50;;;19.17;;
27489;SDS011;14925;51.026;13.752;2022-11-20T05:23:06;46.80;;;19.95;;
27489;SDS011;14925;51.026;13.752;2022-11-20T05:25:33;45.20;;;19.30;;
27489;SDS011;14925;51.026;13.752;2022-11-20T05:28:06;34.83;;;14.63;;
27489;SDS011;14925;51.026;13.752;2022-11-20T05:30:34;36.83;;;17.35;;
27489;SDS011;14925;51.026;13.752;2022-11-20T05:33:15;33.15;;;15.82;;
27489;SDS011;14925;51.026;13.752;2022-11-20T05:35:57;34.70;;;16.02;;
27489;SDS011;14925;51.026;13.752;2022-11-20T05:38:26;33.80;;;15.82;;
27489;SDS011;14925;51.026;13.752;2022-11-20T05:41:09;33.25;;;15.35;;
27489;SDS011;14925;51.026;13.752;2022-11-20T05:43:39;33.90;;;15.02;;
27489;SDS011;14925;51.026;13.752;2022-11-20T05:46:08;32.95;;;15.88;;
27489;SDS011;14925;51.026;13.752;2022-11-20T05:48:34;30.52;;;14.70;;
27489;SDS011;14925;51.026;13.752;2022-11-20T05:51:03;32.22;;;14.90;;
27489;SDS011;14925;51.026;13.752;2022-11-20T05:53:35;28.45;;;14.27;;
27489;SDS011;14925;51.026;13.752;2022-11-20T05:56:02;31.42;;;14.65;;
27489;SDS011;14925;51.026;13.752;2022-11-20T05:58:35;34.95;;;15.32;;
27489;SDS011;14925;51.026;13.752;2022-11-20T06:01:19;31.63;;;14.98;;
27489;SDS011;14925;51.026;13.752;2022-11-20T06:03:49;32.75;;;15.05;;
27489;SDS011;14925;51.026;13.752;2022-11-20T06:06:20;31.55;;;14.25;;
27489;SDS011;14925;51.026;13.752;2022-11-20T06:08:48;28.83;;;13.55;;
27489;SDS011;14925;51.026;13.752;2022-11-20T06:11:17;32.28;;;14.85;;
27489;SDS011;14925;51.026;13.752;2022-11-20T06:13:46;32.35;;;13.93;;
27489;SDS011;14925;51.026;13.752;2022-11-20T06:16:15;34.55;;;15.85;;
27489;SDS011;14925;51.026;13.752;2022-11-20T06:18:52;32.78;;;14.80;;
27489;SDS011;14925;51.026;13.752;2022-11-20T06:21:18;31.85;;;15.02;;
27489;SDS011;14925;51.026;13.752;2022-11-20T06:23:50;35.83;;;15.35;;
27489;SDS011;14925;51.026;13.752;2022-11-20T06:26:21;33.30;;;15.43;;
27489;SDS011;14925;51.026;13.752;2022-11-20T06:29:10;31.17;;;13.93;;
27489;SDS011;14925;51.026;13.752;2022-11-20T06:31:42;31.17;;;14.90;;
27489;SDS011;14925;51.026;13.752;2022-11-20T06:34:10;31.02;;;14.90;;
27489;SDS011;14925;51.026;13.752;2022-11-20T06:36:47;31.67;;;15.23;;
27489;SDS011;14925;51.026;13.752;2022-11-20T06:39:15;29.88;;;14.60;;
27489;SDS011;14925;51.026;13.752;2022-11-20T06:41:43;29.20;;;13.77;;
27489;SDS011;14925;51.026;13.752;2022-11-20T06:44:14;26.40;;;11.95;;
27489;SDS011;14925;51.026;13.752;2022-11-20T06:46:49;37.80;;;16.23;;
27489;SDS011;14925;51.026;13.752;2022-11-20T06:49:15;37.22;;;16.83;;
27489;SDS011;14925;51.026;13.752;2022-11-20T06:51:51;39.05;;;17.50;;
27489;SDS011;14925;51.026;13.752;2022-11-20T06:54:20;41.50;;;18.48;;
27489;SDS011;14925;51.026;13.752;2022-11-20T06:56:51;42.60;;;19.17;;
27489;SDS011;14925;51.026;13.752;2022-11-20T06:59:25;47.45;;;20.88;;
27489;SDS011;14925;51.026;13.752;2022-11-20T07:01:54;49.30;;;20.38;;
27489;SDS011;14925;51.026;13.752;2022-11-20T07:04:24;49.08;;;20.92;;
27489;SDS011;14925;51.026;13.752;2022-11-20T07:06:58;47.58;;;20.15;;
27489;SDS011;14925;51.026;13.752;2022-11-20T07:09:28;47.88;;;21.10;;
27489;SDS011;14925;51.026;13.752;2022-11-20T07:12:00;42.42;;;19.15;;
27489;SDS011;14925;51.026;13.752;2022-11-20T07:14:27;49.55;;;21.90;;
27489;SDS011;14925;51.026;13.752;2022-11-20T07:16:59;44.45;;;20.25;;
27489;SDS011;14925;51.026;13.752;2022-11-20T07:19:45;41.78;;;19.20;;
27489;SDS011;14925;51.026;13.752;2022-11-20T07:22:13;40.60;;;20.17;;
27489;SDS011;14925;51.026;13.752;2022-11-20T07:24:56;45.95;;;20.70;;
27489;SDS011;14925;51.026;13.752;2022-11-20T07:27:27;50.75;;;21.60;;
27489;SDS011;14925;51.026;13.752;2022-11-20T07:30:03;52.00;;;21.73;;
27489;SDS011;14925;51.026;13.752;2022-11-20T07:32:37;44.25;;;21.08;;
27489;SDS011;14925;51.026;13.752;2022-11-20T07:35:03;53.65;;;23.83;;
27489;SDS011;14925;51.026;13.752;2022-11-20T07:37:34;52.47;;;24.20;;
27489;SDS011;14925;51.026;13.752;2022-11-20T07:40:28;52.85;;;24.38;;
27489;SDS011;14925;51.026;13.752;2022-11-20T07:43:14;48.13;;;22.83;;
27489;SDS011;14925;51.026;13.752;2022-11-20T07:45:48;49.22;;;21.80;;
27489;SDS011;14925;51.026;13.752;2022-11-20T07:48:20;46.20;;;22.10;;
27489;SDS011;14925;51.026;13.752;2022-11-20T07:50:48;51.60;;;23.35;;
27489;SDS011;14925;51.026;13.752;2022-11-20T07:53:14;51.00;;;23.17;;
27489;SDS011;14925;51.026;13.752;2022-11-20T07:55:48;51.40;;;23.75;;
27489;SDS011;14925;51.026;13.752;2022-11-20T07:58:27;49.03;;;24.08;;
27489;SDS011;14925;51.026;13.752;2022-11-20T08:05:59;51.30;;;22.92;;
27489;SDS011;14925;51.026;13.752;2022-11-20T08:08:31;52.63;;;23.25;;
27489;SDS011;14925;51.026;13.752;2022-11-20T08:11:16;49.75;;;23.08;;
27489;SDS011;14925;51.026;13.752;2022-11-20T08:14:00;51.28;;;22.83;;
27489;SDS011;14925;51.026;13.752;2022-11-20T08:17:08;52.30;;;22.95;;
27489;SDS011;14925;51.026;13.752;2022-11-20T08:19:36;48.40;;;23.20;;
27489;SDS011;14925;51.026;13.752;2022-11-20T08:22:17;37.53;;;16.80;;
27489;SDS011;14925;51.026;13.752;2022-11-20T08:24:50;48.03;;;23.00;;
27489;SDS011;14925;51.026;13.752;2022-11-20T08:27:31;55.25;;;24.73;;
27489;SDS011;14925;51.026;13.752;2022-11-20T08:30:02;54.60;;;24.85;;
27489;SDS011;14925;51.026;13.752;2022-11-20T08:32:32;51.03;;;25.10;;
27489;SDS011;14925;51.026;13.752;2022-11-20T08:35:09;56.05;;;25.42;;
27489;SDS011;14925;51.026;13.752;2022-11-20T08:37:41;55.25;;;25.88;;
27489;SDS011;14925;51.026;13.752;2022-11-20T08:40:09;56.50;;;25.55;;
27489;SDS011;14925;51.026;13.752;2022-11-20T08:42:49;52.15;;;25.58;;
27489;SDS011;14925;51.026;13.752;2022-11-20T08:45:18;58.83;;;26.35;;
27489;SDS011;14925;51.026;13.752;2022-11-20T08:47:47;57.58;;;25.45;;
27489;SDS011;14925;51.026;13.752;2022-11-20T08:50:15;57.80;;;26.73;;
27489;SDS011;14925;51.026;13.752;2022-11-20T08:52:46;55.50;;;24.73;;
27489;SDS011;14925;51.026;13.752;2022-11-20T08:55:12;57.17;;;25.55;;
27489;SDS011;14925;51.026;13.752;2022-11-20T08:57:42;58.15;;;26.42;;
27489;SDS011;14925;51.026;13.752;2022-11-20T09:00:09;55.10;;;25.15;;
27489;SDS011;14925;51.026;13.752;2022-11-20T09:02:39;56.72;;;24.63;;
27489;SDS011;14925;51.026;13.752;2022-11-20T09:05:06;55.92;;;25.90;;
27489;SDS011;14925;51.026;13.752;2022-11-20T09:07:32;55.45;;;25.55;;
27489;SDS011;14925;51.026;13.752;2022-11-20T09:09:57;54.30;;;24.52;;
27489;SDS011;14925;51.026;13.752;2022-11-20T09:12:23;53.42;;;24.98;;
27489;SDS011;14925;51.026;13.752;2022-11-20T09:14:54;55.17;;;25.83;;
27489;SDS011;14925;51.026;13.752;2022-11-20T09:17:19;55.90;;;25.92;;
27489;SDS011;14925;51.026;13.752;2022-11-20T09:19:50;57.17;;;25.85;;
27489;SDS011;14925;51.026;13.752;2022-11-20T09:22:17;55.50;;;25.73;;
27489;SDS011;14925;51.026;13.752;2022-11-20T09:24:45;52.15;;;25.40;;
27489;SDS011;14925;51.026;13.752;2022-11-20T09:27:15;56.50;;;26.13;;
27489;SDS011;14925;51.026;13.752;2022-11-20T09:29:49;55.22;;;25.98;;
27489;SDS011;14925;51.026;13.752;2022-11-20T09:32:14;54.83;;;25.05;;
27489;SDS011;14925;51.026;13.752;2022-11-20T09:34:40;51.47;;;24.42;;
27489;SDS011;14925;51.026;13.752;2022-11-20T09:37:05;56.90;;;25.65;;
27489;SDS011;14925;51.026;13.752;2022-11-20T09:39:41;50.35;;;24.63;;
27489;SDS011;14925;51.026;13.752;2022-11-20T09:42:14;51.45;;;25.00;;
27489;SDS011;14925;51.026;13.752;2022-11-20T09:53:11;46.92;;;23.08;;
27489;SDS011;14925;51.026;13.752;2022-11-20T09:55:43;46.60;;;22.52;;
27489;SDS011;14925;51.026;13.752;2022-11-20T09:58:14;46.28;;;22.15;;
27489;SDS011;14925;51.026;13.752;2022-11-20T10:00:46;42.47;;;21.40;;
27489;SDS011;14925;51.026;13.752;2022-11-20T10:05:45;42.13;;;20.50;;
27489;SDS011;14925;51.026;13.752;2022-11-20T10:08:40;44.33;;;21.08;;
27489;SDS011;14925;51.026;13.752;2022-11-20T10:11:18;42.88;;;20.73;;
27489;SDS011;14925;51.026;13.752;2022-11-20T10:22:40;35.25;;;18.80;;
27489;SDS011;14925;51.026;13.752;2022-11-20T10:25:20;32.17;;;15.80;;
27489;SDS011;14925;51.026;13.752;2022-11-20T10:30:35;36.78;;;17.90;;
27489;SDS011;14925;51.026;13.752;2022-11-20T10:33:05;38.42;;;18.80;;
27489;SDS011;14925;51.026;13.752;2022-11-20T10:35:48;35.65;;;18.17;;
27489;SDS011;14925;51.026;13.752;2022-11-20T10:38:21;35.33;;;18.83;;
27489;SDS011;14925;51.026;13.752;2022-11-20T10:40:57;39.95;;;18.55;;
27489;SDS011;14925;51.026;13.752;2022-11-20T10:43:44;36.88;;;18.75;;
27489;SDS011;14925;51.026;13.752;2022-11-20T10:46:15;32.33;;;17.40;;
27489;SDS011;14925;51.026;13.752;2022-11-20T10:48:43;36.63;;;19.67;;
27489;SDS011;14925;51.026;13.752;2022-11-20T10:57:17;35.08;;;17.92;;
27489;SDS011;14925;51.026;13.752;2022-11-20T10:59:44;29.48;;;15.68;;
27489;SDS011;14925;51.026;13.752;2022-11-20T11:02:20;32.53;;;17.35;;
27489;SDS011;14925;51.026;13.752;2022-11-20T11:04:47;37.28;;;19.00;;
27489;SDS011;14925;51.026;13.752;2022-11-20T11:07:22;32.75;;;18.05;;
27489;SDS011;14925;51.026;13.752;2022-11-20T11:09:50;35.38;;;19.10;;
27489;SDS011;14925;51.026;13.752;2022-11-20T11:12:21;33.35;;;17.70;;
27489;SDS011;14925;51.026;13.752;2022-11-20T11:14:49;33.47;;;16.70;;
27489;SDS011;14925;51.026;13.752;2022-11-20T11:17:32;34.78;;;18.08;;
27489;SDS011;14925;51.026;13.752;2022-11-20T11:22:47;34.78;;;17.85;;
27489;SDS011;14925;51.026;13.752;2022-11-20T11:25:27;35.28;;;17.50;;
27489;SDS011;14925;51.026;13.752;2022-11-20T11:28:05;33.97;;;17.83;;
27489;SDS011;14925;51.026;13.752;2022-11-20T11:30:44;32.00;;;17.13;;
27489;SDS011;14925;51.026;13.752;2022-11-20T11:33:26;31.33;;;16.95;;
27489;SDS011;14925;51.026;13.752;2022-11-20T11:36:00;25.85;;;13.60;;
27489;SDS011;14925;51.026;13.752;2022-11-20T11:41:23;17.58;;;10.45;;
27489;SDS011;14925;51.026;13.752;2022-11-20T11:43:54;21.30;;;11.23;;
27489;SDS011;14925;51.026;13.752;2022-11-20T11:46:39;19.58;;;11.02;;
27489;SDS011;14925;51.026;13.752;2022-11-20T11:57:17;19.65;;;10.82;;
27489;SDS011;14925;51.026;13.752;2022-11-20T12:03:15;18.63;;;10.77;;
27489;SDS011;14925;51.026;13.752;2022-11-20T12:05:49;19.17;;;10.25;;
27489;SDS011;14925;51.026;13.752;2022-11-20T12:11:34;17.13;;;10.52;;
27489;SDS011;14925;51.026;13.752;2022-11-20T12:14:40;18.27;;;10.73;;
27489;SDS011;14925;51.026;13.752;2022-11-20T12:17:10;20.00;;;10.77;;
27489;SDS011;14925;51.026;13.752;2022-11-20T12:19:40;18.38;;;10.98;;
27489;SDS011;14925;51.026;13.752;2022-11-20T12:22:28;22.35;;;12.43;;
27489;SDS011;14925;51.026;13.752;2022-11-20T12:30:32;23.13;;;12.35;;
27489;SDS011;14925;51.026;13.752;2022-11-20T12:33:12;20.83;;;11.63;;
27489;SDS011;14925;51.026;13.752;2022-11-20T12:50:30;25.73;;;13.85;;
27489;SDS011;14925;51.026;13.752;2022-11-20T12:53:06;21.77;;;12.55;;
27489;SDS011;14925;51.026;13.752;2022-11-20T12:55:51;23.48;;;12.63;;
27489;SDS011;14925;51.026;13.752;2022-11-20T13:01:25;24.45;;;13.00;;
27489;SDS011;14925;51.026;13.752;2022-11-20T13:06:52;24.38;;;13.60;;
27489;SDS011;14925;51.026;13.752;2022-11-20T13:09:19;25.30;;;12.95;;
27489;SDS011;14925;51.026;13.752;2022-11-20T13:12:07;24.02;;;12.52;;
27489;SDS011;14925;51.026;13.752;2022-11-20T13:17:22;26.40;;;13.85;;
27489;SDS011;14925;51.026;13.752;2022-11-20T13:19:55;25.35;;;13.75;;
27489;SDS011;14925;51.026;13.752;2022-11-20T13:22:27;26.20;;;14.38;;
27489;SDS011;14925;51.026;13.752;2022-11-20T13:24:54;23.05;;;13.32;;
27489;SDS011;14925;51.026;13.752;2022-11-20T13:27:23;26.95;;;13.25;;
27489;SDS011;14925;51.026;13.752;2022-11-20T13:29:58;20.88;;;12.48;;
27489;SDS011;14925;51.026;13.752;2022-11-20T13:32:25;22.88;;;12.93;;
27489;SDS011;14925;51.026;13.752;2022-11-20T13:35:02;25.45;;;13.38;;
27489;SDS011;14925;51.026;13.752;2022-11-20T13:37:32;22.75;;;12.88;;
27489;SDS011;14925;51.026;13.752;2022-11-20T13:42:43;20.10;;;11.07;;
27489;SDS011;14925;51.026;13.752;2022-11-20T13:45:29;19.00;;;11.27;;
27489;SDS011;14925;51.026;13.752;2022-11-20T13:47:56;21.55;;;11.75;;
27489;SDS011;14925;51.026;13.752;2022-11-20T13:58:35;20.40;;;10.90;;
27489;SDS011;14925;51.026;13.752;2022-11-20T14:03:40;15.27;;;7.82;;
27489;SDS011;14925;51.026;13.752;2022-11-20T14:06:11;19.98;;;10.73;;
27489;SDS011;14925;51.026;13.752;2022-11-20T14:08:44;18.52;;;11.20;;
27489;SDS011;14925;51.026;13.752;2022-11-20T14:11:18;19.05;;;9.68;;
27489;SDS011;14925;51.026;13.752;2022-11-20T14:16:41;18.13;;;10.10;;
27489;SDS011;14925;51.026;13.752;2022-11-20T14:21:49;18.35;;;10.30;;
27489;SDS011;14925;51.026;13.752;2022-11-20T14:24:21;21.98;;;11.43;;
27489;SDS011;14925;51.026;13.752;2022-11-20T14:26:49;25.15;;;12.93;;
27489;SDS011;14925;51.026;13.752;2022-11-20T14:29:27;17.42;;;9.55;;
27489;SDS011;14925;51.026;13.752;2022-11-20T14:31:57;18.73;;;10.15;;
27489;SDS011;14925;51.026;13.752;2022-11-20T14:34:32;18.65;;;10.70;;
27489;SDS011;14925;51.026;13.752;2022-11-20T14:37:05;17.30;;;9.60;;
27489;SDS011;14925;51.026;13.752;2022-11-20T14:39:34;15.75;;;10.18;;
27489;SDS011;14925;51.026;13.752;2022-11-20T14:42:15;17.17;;;9.75;;
27489;SDS011;14925;51.026;13.752;2022-11-20T14:44:44;18.20;;;10.32;;
27489;SDS011;14925;51.026;13.752;2022-11-20T14:47:13;19.35;;;11.25;;
27489;SDS011;14925;51.026;13.752;2022-11-20T14:49:42;19.50;;;11.25;;
27489;SDS011;14925;51.026;13.752;2022-11-20T14:54:43;18.00;;;10.70;;
27489;SDS011;14925;51.026;13.752;2022-11-20T14:57:18;21.70;;;12.10;;
27489;SDS011;14925;51.026;13.752;2022-11-20T14:59:46;21.98;;;12.10;;
27489;SDS011;14925;51.026;13.752;2022-11-20T15:02:11;22.00;;;12.52;;
27489;SDS011;14925;51.026;13.752;2022-11-20T15:04:49;20.20;;;12.55;;
27489;SDS011;14925;51.026;13.752;2022-11-20T15:07:29;24.15;;;12.70;;
27489;SDS011;14925;51.026;13.752;2022-11-20T15:12:35;23.88;;;13.27;;
27489;SDS011;14925;51.026;13.752;2022-11-20T15:18:04;24.08;;;13.43;;
27489;SDS011;14925;51.026;13.752;2022-11-20T15:20:35;25.95;;;13.40;;
27489;SDS011;14925;51.026;13.752;2022-11-20T15:23:08;28.23;;;15.02;;
27489;SDS011;14925;51.026;13.752;2022-11-20T15:25:46;28.13;;;14.73;;
27489;SDS011;14925;51.026;13.752;2022-11-20T15:28:15;27.70;;;14.43;;
27489;SDS011;14925;51.026;13.752;2022-11-20T15:30:47;28.58;;;15.25;;
27489;SDS011;14925;51.026;13.752;2022-11-20T15:33:17;27.88;;;15.15;;
27489;SDS011;14925;51.026;13.752;2022-11-20T15:35:48;29.27;;;14.45;;
27489;SDS011;14925;51.026;13.752;2022-11-20T15:38:17;27.40;;;14.85;;
27489;SDS011;14925;51.026;13.752;2022-11-20T15:40:42;27.88;;;15.18;;
27489;SDS011;14925;51.026;13.752;2022-11-20T15:43:13;29.00;;;15.10;;
27489;SDS011;14925;51.026;13.752;2022-11-20T15:45:45;26.23;;;14.75;;
27489;SDS011;14925;51.026;13.752;2022-11-20T15:48:16;26.23;;;12.47;;
27489;SDS011;14925;51.026;13.752;2022-11-20T15:50:49;31.65;;;16.50;;
27489;SDS011;14925;51.026;13.752;2022-11-20T15:53:18;30.30;;;16.25;;
27489;SDS011;14925;51.026;13.752;2022-11-20T15:55:51;29.85;;;15.98;;
27489;SDS011;14925;51.026;13.752;2022-11-20T15:58:19;32.05;;;16.23;;
27489;SDS011;14925;51.026;13.752;2022-11-20T16:00:49;28.88;;;15.45;;
27489;SDS011;14925;51.026;13.752;2022-11-20T16:03:20;27.90;;;14.93;;
27489;SDS011;14925;51.026;13.752;2022-11-20T16:05:58;26.88;;;14.85;;
27489;SDS011;14925;51.026;13.752;2022-11-20T16:08:27;28.65;;;15.55;;
27489;SDS011;14925;51.026;13.752;2022-11-20T16:10:55;30.75;;;16.67;;
27489;SDS011;14925;51.026;13.752;2022-11-20T16:13:30;31.23;;;15.35;;
27489;SDS011;14925;51.026;13.752;2022-11-20T16:16:19;29.13;;;16.10;;
27489;SDS011;14925;51.026;13.752;2022-11-20T16:18:50;29.63;;;15.90;;
27489;SDS011;14925;51.026;13.752;2022-11-20T16:21:26;30.25;;;16.10;;
27489;SDS011;14925;51.026;13.752;2022-11-20T16:27:11;30.92;;;16.73;;
27489;SDS011;14925;51.026;13.752;2022-11-20T16:29:39;33.40;;;16.40;;
27489;SDS011;14925;51.026;13.752;2022-11-20T16:32:07;32.05;;;16.27;;
27489;SDS011;14925;51.026;13.752;2022-11-20T16:34:33;32.63;;;16.77;;
27489;SDS011;14925;51.026;13.752;2022-11-20T16:37:10;33.63;;;17.30;;
27489;SDS011;14925;51.026;13.752;2022-11-20T16:39:39;35.42;;;17.30;;
27489;SDS011;14925;51.026;13.752;2022-11-20T16:42:15;34.83;;;17.02;;
27489;SDS011;14925;51.026;13.752;2022-11-20T16:44:46;36.08;;;17.60;;